createdAt,value
2022-08-02T00:01:13.331Z,101368.69
2022-08-02T00:03:43.045Z,101346.22
2022-08-02T00:06:12.777Z,101366.94
2022-08-02T00:08:42.469Z,101363.50
2022-08-02T00:11:14.753Z,101376.28
2022-08-02T00:13:44.588Z,101361.63
2022-08-02T00:16:16.927Z,101321.94
2022-08-02T00:18:47.917Z,101373.66
2022-08-02T00:21:17.575Z,101365.06
2022-08-02T00:24:27.640Z,101371.06
2022-08-02T00:26:41.098Z,101353.06
2022-08-02T00:29:10.919Z,101360.72
2022-08-02T00:31:40.609Z,101341.78
2022-08-02T00:34:28.703Z,101304.72
2022-08-02T00:36:59.769Z,101329.72
2022-08-02T00:39:33.619Z,101346.91
2022-08-02T00:42:08.257Z,101349.50
2022-08-02T00:44:38.261Z,101328.81
2022-08-02T00:47:08.421Z,101351.16
2022-08-02T00:49:38.246Z,101353.72
2022-08-02T00:52:08.758Z,101356.31
2022-08-02T00:54:38.809Z,101334.78
2022-08-02T00:57:11.028Z,101349.53
2022-08-02T00:59:42.091Z,101359.81
2022-08-02T01:02:12.264Z,101341.72
2022-08-02T01:04:42.324Z,101358.03
2022-08-02T01:07:13.758Z,101359.75
2022-08-02T01:09:44.860Z,101339.06
2022-08-02T01:12:17.653Z,101342.47
2022-08-02T01:14:52.375Z,101354.53
2022-08-02T01:17:31.906Z,101339.88
2022-08-02T01:20:11.441Z,101338.09
2022-08-02T01:23:08.277Z,101348.28
2022-08-02T01:25:59.720Z,101337.03
2022-08-02T01:28:38.911Z,101356.91
2022-08-02T01:31:15.412Z,101343.06
2022-08-02T01:33:51.202Z,101337.94
2022-08-02T01:36:23.373Z,101345.59
2022-08-02T01:38:56.164Z,101323.16
2022-08-02T01:41:29.724Z,101351.59
2022-08-02T01:44:04.384Z,101351.56
2022-08-02T01:46:37.164Z,101354.16
2022-08-02T01:49:10.658Z,101343.75
2022-08-02T01:51:54.736Z,101342.91
2022-08-02T01:54:27.766Z,101344.44
2022-08-02T01:56:59.168Z,101341.94
2022-08-02T01:59:34.342Z,101346.22
2022-08-02T02:02:04.704Z,101326.31
2022-08-02T02:04:35.582Z,101333.19
2022-08-02T02:07:06.585Z,101348.75
2022-08-02T02:09:50.783Z,101346.16
2022-08-02T02:12:22.431Z,101344.31
2022-08-02T02:14:56.158Z,101348.66
2022-08-02T02:18:10.428Z,101322.72
2022-08-02T02:20:19.902Z,101345.09
2022-08-02T02:22:50.350Z,101321.78
2022-08-02T02:25:27.534Z,101329.69
2022-08-02T02:28:11.041Z,101326.13
2022-08-02T02:30:49.153Z,101306.38
2022-08-02T02:33:24.157Z,101249.56
2022-08-02T02:35:56.782Z,101303.94
2022-08-02T02:38:30.177Z,101318.59
2022-08-02T02:41:03.579Z,101322.03
2022-08-02T02:43:36.274Z,101309.88
2022-08-02T02:46:10.537Z,101311.59
2022-08-02T02:48:40.660Z,101303.81
2022-08-02T02:51:13.960Z,101306.31
2022-08-02T02:54:30.975Z,101263.97
2022-08-02T02:56:37.761Z,101260.66
2022-08-02T02:59:08.248Z,101281.31
2022-08-02T03:01:57.105Z,101240.78
2022-08-02T03:04:55.413Z,101291.53
2022-08-02T03:07:19.628Z,101289.78
2022-08-02T03:09:54.601Z,101294.00
2022-08-02T03:12:31.494Z,101304.25
2022-08-02T03:15:04.290Z,101287.69
2022-08-02T03:17:47.993Z,101304.88
2022-08-02T03:20:20.030Z,101291.13
2022-08-02T03:22:50.113Z,101280.91
2022-08-02T03:25:20.974Z,101277.84
2022-08-02T03:27:50.674Z,101285.47
2022-08-02T03:30:20.810Z,101282.69
2022-08-02T03:32:53.780Z,101294.72
2022-08-02T03:35:24.604Z,101286.78
2022-08-02T03:37:56.804Z,101267.84
2022-08-02T03:40:27.872Z,101300.53
2022-08-02T03:42:57.722Z,101313.44
2022-08-02T03:45:29.007Z,101284.97
2022-08-02T03:48:02.385Z,101310.81
2022-08-02T03:50:53.547Z,101284.00
2022-08-02T03:53:24.023Z,101311.56
2022-08-02T03:55:55.919Z,101295.94
2022-08-02T03:58:27.534Z,101315.03
2022-08-02T04:00:59.038Z,101307.31
2022-08-02T04:03:31.554Z,101274.72
2022-08-02T04:06:04.284Z,101303.13
2022-08-02T04:08:38.088Z,101294.50
2022-08-02T04:11:20.913Z,101298.88
2022-08-02T04:13:50.644Z,101280.75
2022-08-02T04:16:25.318Z,101279.81
2022-08-02T04:19:03.305Z,101277.44
2022-08-02T04:21:48.544Z,101290.41
2022-08-02T04:24:25.114Z,101291.31
2022-08-02T04:27:06.471Z,101292.81
2022-08-02T04:29:38.573Z,101304.88
2022-08-02T04:32:10.054Z,101306.59
2022-08-02T04:34:47.381Z,101252.38
2022-08-02T04:37:24.470Z,101309.31
2022-08-02T04:39:54.187Z,101285.06
2022-08-02T04:42:24.686Z,101255.78
2022-08-02T04:44:55.301Z,101290.41
2022-08-02T04:47:54.222Z,101306.84
2022-08-02T04:50:17.659Z,101279.09
2022-08-02T04:52:47.325Z,101300.81
2022-08-02T04:55:17.079Z,101291.34
2022-08-02T04:57:58.426Z,101312.91
2022-08-02T05:00:29.324Z,101299.19
2022-08-02T05:02:59.659Z,101267.38
2022-08-02T05:05:32.060Z,101294.41
2022-08-02T05:08:02.961Z,101310.72
2022-08-02T05:10:33.708Z,101309.00
2022-08-02T05:13:07.111Z,101317.56
2022-08-02T05:15:37.850Z,101316.69
2022-08-02T05:18:08.821Z,101310.75
2022-08-02T05:20:41.066Z,101290.13
2022-08-02T05:23:11.776Z,101278.84
2022-08-02T05:25:41.525Z,101297.91
2022-08-02T05:28:12.334Z,101314.38
2022-08-02T05:30:43.021Z,101227.25
2022-08-02T05:33:14.304Z,101314.31
2022-08-02T05:35:47.869Z,101284.31
2022-08-02T05:38:17.620Z,101277.44
2022-08-02T05:40:54.433Z,101312.09
2022-08-02T05:43:26.064Z,101319.13
2022-08-02T05:45:56.802Z,101315.75
2022-08-02T05:48:31.518Z,101307.94
2022-08-02T05:51:09.081Z,101310.72
2022-08-02T05:53:44.021Z,101304.66
2022-08-02T05:56:25.490Z,101298.72
2022-08-02T05:59:01.270Z,101307.50
2022-08-02T06:01:36.830Z,101306.78
2022-08-02T06:04:10.029Z,101294.78
2022-08-02T06:06:47.911Z,101316.44
2022-08-02T06:09:26.999Z,101317.38
2022-08-02T06:12:04.824Z,101226.19
2022-08-02T06:14:40.592Z,101324.41
2022-08-02T06:17:12.180Z,101320.09
2022-08-02T06:19:51.740Z,101321.75
2022-08-02T06:22:32.139Z,101319.16
2022-08-02T06:25:47.896Z,101294.91
2022-08-02T06:28:01.147Z,101313.63
2022-08-02T06:30:33.334Z,101298.03
2022-08-02T06:33:05.213Z,101303.06
2022-08-02T06:35:42.266Z,101326.19
2022-08-02T06:38:20.885Z,101323.47
2022-08-02T06:40:57.475Z,101311.31
2022-08-02T06:43:34.105Z,101315.50
2022-08-02T06:46:34.457Z,101316.81
2022-08-02T06:48:58.002Z,101303.47
2022-08-02T06:51:28.937Z,101301.69
2022-08-02T06:54:01.296Z,101281.78
2022-08-02T06:56:31.087Z,101293.69
2022-08-02T06:59:05.784Z,101270.41
2022-08-02T07:01:39.020Z,101253.25
2022-08-02T07:04:09.270Z,101271.19
2022-08-02T07:06:39.332Z,101277.88
2022-08-02T07:09:22.374Z,101236.47
2022-08-02T07:11:52.223Z,101278.56
2022-08-02T07:14:23.058Z,101279.88
2022-08-02T07:16:53.599Z,101289.25
2022-08-02T07:19:36.152Z,101283.69
2022-08-02T07:22:07.780Z,101274.06
2022-08-02T07:24:40.910Z,101260.16
2022-08-02T07:27:12.287Z,101257.56
2022-08-02T07:29:46.613Z,101262.56
2022-08-02T07:32:17.907Z,101277.34
2022-08-02T07:34:51.127Z,101278.97
2022-08-02T07:37:35.380Z,101276.94
2022-08-02T07:40:19.877Z,101143.75
2022-08-02T07:42:54.506Z,101262.09
2022-08-02T07:45:27.740Z,101272.97
2022-08-02T07:47:58.603Z,101250.47
2022-08-02T07:50:28.530Z,101277.72
2022-08-02T07:53:01.456Z,101271.53
2022-08-02T07:55:40.421Z,101276.69
2022-08-02T07:58:12.890Z,101278.00
2022-08-02T08:00:45.846Z,101264.16
2022-08-02T08:03:16.034Z,101262.38
2022-08-02T08:05:46.014Z,101242.59
2022-08-02T08:08:17.658Z,101262.78
2022-08-02T08:10:50.521Z,101255.63
2022-08-02T08:13:20.278Z,101240.00
2022-08-02T08:15:52.367Z,101232.63
2022-08-02T08:18:23.902Z,101234.09
2022-08-02T08:20:53.833Z,101235.38
2022-08-02T08:23:24.582Z,101237.13
2022-08-02T08:25:57.014Z,101219.69
2022-08-02T08:28:27.969Z,101213.75
2022-08-02T08:30:58.801Z,101234.50
2022-08-02T08:33:28.543Z,101225.38
2022-08-02T08:35:58.503Z,101226.06
2022-08-02T08:38:28.598Z,101203.00
2022-08-02T08:41:02.041Z,101213.28
2022-08-02T08:43:32.870Z,101160.97
2022-08-02T08:46:02.593Z,101219.66
2022-08-02T08:48:40.819Z,101224.44
2022-08-02T08:51:14.108Z,101227.78
2022-08-02T08:53:46.733Z,101206.50
2022-08-02T08:56:20.802Z,101217.28
2022-08-02T08:58:50.496Z,101222.16
2022-08-02T09:01:20.466Z,101225.03
2022-08-02T09:03:50.346Z,101213.72
2022-08-02T09:06:20.598Z,101213.00
2022-08-02T09:08:50.358Z,101223.03
2022-08-02T09:11:28.197Z,101221.16
2022-08-02T09:13:59.679Z,101223.19
2022-08-02T09:16:34.858Z,101225.53
2022-08-02T09:19:20.405Z,101227.41
2022-08-02T09:21:51.888Z,101223.63
2022-08-02T09:24:23.671Z,101224.16
2022-08-02T09:26:56.104Z,101164.38
2022-08-02T09:29:27.635Z,101210.78
2022-08-02T09:32:05.754Z,101210.44
2022-08-02T09:34:51.418Z,101189.78
2022-08-02T09:37:28.682Z,101185.88
2022-08-02T09:40:03.661Z,101196.59
2022-08-02T09:42:36.226Z,101197.25
2022-08-02T09:45:06.689Z,101217.06
2022-08-02T09:47:39.298Z,101201.84
2022-08-02T09:50:14.845Z,101210.31
2022-08-02T09:52:45.931Z,101209.13
2022-08-02T09:55:16.245Z,101210.03
2022-08-02T09:57:50.428Z,101158.84
2022-08-02T10:00:31.889Z,101209.66
2022-08-02T10:03:21.583Z,101209.06
2022-08-02T10:06:02.400Z,101192.59
2022-08-02T10:08:34.304Z,101180.31
2022-08-02T10:11:04.617Z,101200.22
2022-08-02T10:13:38.503Z,101209.06
2022-08-02T10:16:08.949Z,101195.13
2022-08-02T10:18:40.798Z,101162.06
2022-08-02T10:21:16.995Z,101173.75
2022-08-02T10:23:49.021Z,101187.72
2022-08-02T10:26:21.752Z,101177.59
2022-08-02T10:28:56.641Z,101197.59
2022-08-02T10:31:30.374Z,101193.25
2022-08-02T10:34:02.787Z,101193.72
2022-08-02T10:36:35.429Z,101194.31
2022-08-02T10:39:05.533Z,101172.44
2022-08-02T10:41:49.687Z,101193.16
2022-08-02T10:44:33.306Z,101192.28
2022-08-02T10:47:25.297Z,101194.00
2022-08-02T10:49:57.211Z,101182.56
2022-08-02T10:52:27.860Z,101192.75
2022-08-02T10:54:59.498Z,101183.28
2022-08-02T10:57:30.898Z,101196.59
2022-08-02T11:00:12.634Z,101180.63
2022-08-02T11:02:53.282Z,101186.22
2022-08-02T11:05:43.130Z,101176.81
2022-08-02T11:08:27.058Z,101180.06
2022-08-02T11:11:01.958Z,101178.16
2022-08-02T11:13:31.999Z,101149.19
2022-08-02T11:16:11.494Z,101113.63
2022-08-02T11:19:07.333Z,101140.09
2022-08-02T11:21:38.191Z,101171.50
2022-08-02T11:24:32.752Z,101114.50
2022-08-02T11:27:04.294Z,101160.41
2022-08-02T11:29:39.030Z,101170.41
2022-08-02T11:32:18.700Z,101161.63
2022-08-02T11:34:50.179Z,101157.41
2022-08-02T11:37:30.782Z,101150.66
2022-08-02T11:40:00.833Z,101155.78
2022-08-02T11:42:35.450Z,101137.94
2022-08-02T11:45:05.959Z,101155.69
2022-08-02T11:47:48.339Z,101116.34
2022-08-02T11:50:20.615Z,101150.66
2022-08-02T11:53:00.084Z,101147.72
2022-08-02T11:55:31.189Z,101132.88
2022-08-02T11:58:04.431Z,101144.88
2022-08-02T12:00:35.197Z,101147.50
2022-08-02T12:03:08.618Z,101123.88
2022-08-02T12:06:05.665Z,101137.28
2022-08-02T12:08:28.732Z,101112.81
2022-08-02T12:11:03.313Z,101083.50
2022-08-02T12:13:45.102Z,101123.03
2022-08-02T12:16:40.251Z,101113.81
2022-08-02T12:19:23.397Z,101123.88
2022-08-02T12:22:10.276Z,101119.47
2022-08-02T12:24:41.013Z,101136.44
2022-08-02T12:27:11.133Z,101127.06
2022-08-02T12:29:55.981Z,101119.06
2022-08-02T12:32:30.386Z,101108.97
2022-08-02T12:35:13.363Z,101108.25
2022-08-02T12:37:45.658Z,101125.72
2022-08-02T12:40:25.389Z,101116.22
2022-08-02T12:42:59.380Z,101101.88
2022-08-02T12:45:36.566Z,101118.75
2022-08-02T12:48:12.290Z,101094.06
2022-08-02T12:50:44.592Z,101078.44
2022-08-02T12:53:16.560Z,101099.88
2022-08-02T12:55:59.411Z,101101.09
2022-08-02T12:58:32.876Z,101097.72
2022-08-02T13:01:04.224Z,101101.88
2022-08-02T13:04:09.993Z,101096.97
2022-08-02T13:06:42.046Z,101086.34
2022-08-02T13:09:18.828Z,101089.19
2022-08-02T13:11:49.123Z,101079.44
2022-08-02T13:14:18.828Z,101089.06
2022-08-02T13:16:50.155Z,101080.28
2022-08-02T13:19:20.453Z,101070.31
2022-08-02T13:22:02.722Z,101081.19
2022-08-02T13:24:41.135Z,100864.94
2022-08-02T13:27:25.105Z,101070.41
2022-08-02T13:29:56.642Z,101073.66
2022-08-02T13:32:29.950Z,101058.75
2022-08-02T13:35:00.475Z,101044.38
2022-08-02T13:37:33.227Z,101074.13
2022-08-02T13:40:21.602Z,101057.13
2022-08-02T13:42:53.286Z,101070.59
2022-08-02T13:45:23.057Z,101065.34
2022-08-02T13:47:57.547Z,101050.31
2022-08-02T13:50:35.797Z,101058.69
2022-08-02T13:53:08.297Z,101071.38
2022-08-02T13:55:39.593Z,101061.13
2022-08-02T13:58:13.237Z,101052.03
2022-08-02T14:00:42.957Z,101050.38
2022-08-02T14:03:13.649Z,101047.47
2022-08-02T14:05:48.468Z,101050.16
2022-08-02T14:08:23.384Z,101040.59
2022-08-02T14:10:54.784Z,101014.91
2022-08-02T14:13:24.566Z,101024.25
2022-08-02T14:15:59.950Z,101048.84
2022-08-02T14:18:29.716Z,101051.41
2022-08-02T14:20:59.472Z,101033.16
2022-08-02T14:23:49.578Z,101043.44
2022-08-02T14:26:27.572Z,101044.56
2022-08-02T14:28:57.885Z,101046.53
2022-08-02T14:31:29.639Z,101030.06
2022-08-02T14:33:59.445Z,101031.13
2022-08-02T14:36:29.280Z,101014.91
2022-08-02T14:39:02.595Z,101023.91
2022-08-02T14:41:34.074Z,101024.81
2022-08-02T14:44:23.681Z,100947.91
2022-08-02T14:46:54.692Z,101024.22
2022-08-02T14:49:26.717Z,101016.00
2022-08-02T14:51:57.882Z,101016.41
2022-08-02T14:54:31.975Z,101018.66
2022-08-02T14:57:03.087Z,101022.41
2022-08-02T14:59:33.225Z,101002.09
2022-08-02T15:02:05.001Z,101007.44
2022-08-02T15:04:43.364Z,100986.34
2022-08-02T15:07:15.995Z,100993.19
2022-08-02T15:09:48.390Z,100991.81
2022-08-02T15:12:19.064Z,100983.50
2022-08-02T15:14:50.078Z,100981.81
2022-08-02T15:17:19.788Z,100974.50
2022-08-02T15:19:57.407Z,100979.03
2022-08-02T15:22:31.173Z,100992.84
2022-08-02T15:25:04.439Z,100983.41
2022-08-02T15:27:45.023Z,100977.06
2022-08-02T15:30:15.452Z,100977.25
2022-08-02T15:32:52.586Z,100945.38
2022-08-02T15:35:23.363Z,100950.22
2022-08-02T15:37:53.142Z,100976.31
2022-08-02T15:40:25.954Z,100971.66
2022-08-02T15:42:56.677Z,100979.84
2022-08-02T15:45:27.922Z,100979.78
2022-08-02T15:47:57.934Z,100971.28
2022-08-02T15:50:28.734Z,100968.75
2022-08-02T15:52:58.617Z,100968.28
2022-08-02T15:55:39.805Z,100964.13
2022-08-02T15:58:22.616Z,100975.88
2022-08-02T16:00:52.624Z,100971.56
2022-08-02T16:03:23.515Z,100968.59
2022-08-02T16:05:54.350Z,100961.50
2022-08-02T16:08:24.076Z,100972.06
2022-08-02T16:10:56.369Z,100955.22
2022-08-02T16:13:49.938Z,100964.41
2022-08-02T16:16:24.086Z,100965.25
2022-08-02T16:18:53.980Z,100952.97
2022-08-02T16:21:25.592Z,100961.78
2022-08-02T16:24:00.959Z,100968.31
2022-08-02T16:26:36.209Z,100967.81
2022-08-02T16:29:07.368Z,100947.69
2022-08-02T16:31:41.911Z,100968.00
2022-08-02T16:34:12.459Z,100959.69
2022-08-02T16:36:43.586Z,100953.91
2022-08-02T16:39:13.335Z,100937.31
2022-08-02T16:41:51.591Z,100938.13
2022-08-02T16:44:29.610Z,100946.34
2022-08-02T16:47:01.999Z,100948.97
2022-08-02T16:50:04.993Z,100936.31
2022-08-02T16:52:22.021Z,100950.38
2022-08-02T16:54:51.775Z,100940.56
2022-08-02T16:57:24.144Z,100928.69
2022-08-02T17:00:15.598Z,100927.69
2022-08-02T17:02:47.112Z,100945.03
2022-08-02T17:05:18.268Z,100938.84
2022-08-02T17:08:08.073Z,100907.09
2022-08-02T17:10:40.762Z,100936.22
2022-08-02T17:13:13.077Z,100943.47
2022-08-02T17:16:07.773Z,100941.03
2022-08-02T17:18:34.271Z,100910.56
2022-08-02T17:21:12.469Z,100918.84
2022-08-02T17:24:05.867Z,100890.44
2022-08-02T17:26:33.041Z,100924.31
2022-08-02T17:29:14.329Z,100916.53
2022-08-02T17:32:12.532Z,100926.00
2022-08-02T17:34:37.879Z,100932.81
2022-08-02T17:37:07.835Z,100903.72
2022-08-02T17:39:43.948Z,100923.72
2022-08-02T17:42:23.458Z,100926.03
2022-08-02T17:45:07.117Z,100923.13
2022-08-02T17:48:03.925Z,100894.53
2022-08-02T17:50:35.488Z,100918.84
2022-08-02T17:53:05.924Z,100878.47
2022-08-02T17:55:42.282Z,100905.31
2022-08-02T17:58:13.453Z,100913.06
2022-08-02T18:00:47.069Z,100907.47
2022-08-02T18:03:16.770Z,100916.50
2022-08-02T18:05:55.234Z,100911.44
2022-08-02T18:08:25.467Z,100909.28
2022-08-02T18:10:55.891Z,100912.53
2022-08-02T18:13:26.265Z,100913.78
2022-08-02T18:16:05.283Z,100914.06
2022-08-02T18:18:51.799Z,100905.72
2022-08-02T18:21:22.161Z,100892.03
2022-08-02T18:23:58.629Z,100905.28
2022-08-02T18:26:29.714Z,100902.25
2022-08-02T18:29:03.439Z,100888.56
2022-08-02T18:31:39.240Z,100912.94
2022-08-02T18:34:10.270Z,100913.22
2022-08-02T18:36:47.171Z,100904.84
2022-08-02T18:39:18.567Z,100894.97
2022-08-02T18:41:50.253Z,100856.28
2022-08-02T18:44:20.139Z,100922.63
2022-08-02T18:46:52.679Z,100916.31
2022-08-02T18:49:25.546Z,100927.50
2022-08-02T18:52:07.843Z,100928.03
2022-08-02T18:54:38.640Z,100926.25
2022-08-02T18:58:01.925Z,100928.22
2022-08-02T19:00:00.790Z,100933.75
2022-08-02T19:02:33.445Z,100931.88
2022-08-02T19:05:07.019Z,100920.16
2022-08-02T19:07:49.735Z,100924.75
2022-08-02T19:10:21.199Z,100934.53
2022-08-02T19:12:52.987Z,100938.47
2022-08-02T19:15:24.785Z,100931.09
2022-08-02T19:17:58.203Z,100946.75
2022-08-02T19:20:29.090Z,100946.28
2022-08-02T19:23:02.875Z,100942.25
2022-08-02T19:25:35.362Z,100952.41
2022-08-02T19:28:09.598Z,100953.59
2022-08-02T19:30:39.349Z,100944.69
2022-08-02T19:33:54.758Z,100945.75
2022-08-02T19:36:04.453Z,100935.47
2022-08-02T19:38:34.463Z,100927.09
2022-08-02T19:41:04.202Z,100966.72
2022-08-02T19:44:26.417Z,100964.28
2022-08-02T19:46:24.833Z,100955.38
2022-08-02T19:48:57.272Z,100970.59
2022-08-02T19:51:55.124Z,100952.56
2022-08-02T19:54:21.307Z,100969.59
2022-08-02T19:57:08.740Z,100973.78
2022-08-02T19:59:43.543Z,100965.66
2022-08-02T20:02:13.570Z,100975.22
2022-08-02T20:04:50.092Z,100979.63
2022-08-02T20:10:11.628Z,100974.72
2022-08-02T20:12:46.765Z,100973.63
2022-08-02T20:15:16.585Z,100975.88
2022-08-02T20:17:49.295Z,100969.47
2022-08-02T20:20:21.662Z,100970.72
2022-08-02T20:26:06.318Z,100968.09
2022-08-02T20:28:38.860Z,100962.19
2022-08-02T20:31:09.414Z,100957.25
2022-08-02T20:33:55.707Z,100972.63
2022-08-02T20:36:29.186Z,100956.66
2022-08-02T20:39:02.570Z,100959.91
2022-08-02T20:41:36.582Z,100969.69
2022-08-02T20:44:16.144Z,100983.88
2022-08-02T20:47:00.945Z,100957.59
2022-08-02T20:49:40.529Z,100951.00
2022-08-02T20:52:23.371Z,100966.50
2022-08-02T20:54:57.587Z,100980.25
2022-08-02T20:57:48.970Z,100989.75
2022-08-02T21:00:20.665Z,100988.03
2022-08-02T21:02:50.546Z,100973.53
2022-08-02T21:05:20.362Z,100962.34
2022-08-02T21:08:02.206Z,100970.56
2022-08-02T21:10:33.364Z,100980.16
2022-08-02T21:13:18.753Z,100960.34
2022-08-02T21:15:52.129Z,100968.09
2022-08-02T21:18:25.541Z,100974.00
2022-08-02T21:21:04.757Z,100972.66
2022-08-02T21:23:37.722Z,100966.19
2022-08-02T21:26:09.053Z,100952.94
2022-08-02T21:28:44.072Z,100957.06
2022-08-02T21:31:16.120Z,100972.41
2022-08-02T21:33:56.631Z,100965.41
2022-08-02T21:36:30.460Z,100935.63
2022-08-02T21:39:09.028Z,100952.63
2022-08-02T21:41:46.210Z,100962.38
2022-08-02T21:44:17.833Z,100966.03
2022-08-02T21:46:48.849Z,100968.81
2022-08-02T21:49:20.141Z,100954.59
2022-08-02T21:51:50.461Z,100914.69
2022-08-02T21:54:23.949Z,100967.53
2022-08-02T21:56:54.580Z,100964.25
2022-08-02T21:59:26.707Z,100974.53
2022-08-02T22:01:57.828Z,100942.00
2022-08-02T22:04:29.670Z,100953.13
2022-08-02T22:06:59.447Z,100965.03
2022-08-02T22:09:42.898Z,100979.84
2022-08-02T22:12:18.015Z,100965.56
2022-08-02T22:14:54.915Z,100972.41
2022-08-02T22:17:51.063Z,100971.50
2022-08-02T22:20:20.025Z,100980.09
2022-08-02T22:22:51.374Z,100984.53
2022-08-02T22:25:36.287Z,100987.19
2022-08-02T22:28:35.029Z,100984.19
2022-08-02T22:31:00.185Z,100976.75
2022-08-02T22:33:47.322Z,100993.88
2022-08-02T22:36:31.141Z,100989.66
2022-08-02T22:39:01.904Z,100993.97
2022-08-02T22:42:01.326Z,100980.09
2022-08-02T22:44:24.102Z,100968.50
2022-08-02T22:46:53.803Z,101000.94
2022-08-02T22:49:38.722Z,100997.69
2022-08-02T22:52:14.206Z,100997.88
2022-08-02T22:54:44.161Z,100984.31
2022-08-02T22:57:16.698Z,100995.38
2022-08-02T22:59:06.251Z,100971.34
2022-08-02T22:59:07.097Z,100965.78
2022-08-02T22:59:59.963Z,100975.78
2022-08-02T23:02:30.125Z,100971.44
2022-08-02T23:04:59.997Z,100962.88
2022-08-02T23:07:29.714Z,100981.06
2022-08-02T23:10:09.735Z,100975.25
2022-08-02T23:12:42.007Z,100972.69
2022-08-02T23:15:13.222Z,100982.28
2022-08-02T23:17:55.434Z,100976.34
2022-08-02T23:20:25.214Z,100976.41
2022-08-02T23:22:55.687Z,100981.34
2022-08-02T23:25:25.919Z,100979.75
2022-08-02T23:27:58.208Z,100971.38
2022-08-02T23:30:27.950Z,100972.44
2022-08-02T23:32:57.628Z,100989.66
2022-08-02T23:35:27.473Z,100959.75
2022-08-02T23:38:00.663Z,100969.84
2022-08-02T23:40:40.253Z,100975.81
2022-08-02T23:43:15.365Z,100970.75
2022-08-02T23:45:47.668Z,100965.66
2022-08-02T23:48:17.456Z,100958.97
2022-08-02T23:50:47.920Z,100976.25
2022-08-02T23:53:17.729Z,100977.06
2022-08-02T23:55:47.443Z,100983.97
2022-08-02T23:58:19.907Z,100972.00
